createdAt,value
2023-04-10T00:03:35.051Z,10.10
2023-04-10T00:08:38.234Z,10.50
2023-04-10T00:13:41.312Z,8.33
2023-04-10T00:18:45.996Z,6.73
2023-04-10T00:23:49.062Z,9.07
2023-04-10T00:28:52.187Z,10.10
2023-04-10T00:33:56.630Z,8.50
2023-04-10T00:38:59.863Z,8.43
2023-04-10T00:44:03.162Z,8.20
2023-04-10T00:49:07.645Z,9.07
2023-04-10T00:54:12.131Z,8.53
2023-04-10T00:59:15.542Z,8.33
2023-04-10T01:04:20.249Z,8.97
2023-04-10T01:09:34.117Z,7.50
2023-04-10T01:14:47.572Z,7.47
2023-04-10T01:20:04.118Z,6.63
2023-04-10T01:25:23.127Z,7.10
2023-04-10T01:30:29.554Z,6.70
2023-04-10T01:35:34.782Z,7.43
2023-04-10T01:40:42.233Z,8.20
2023-04-10T01:45:49.277Z,6.20
2023-04-10T01:50:54.119Z,6.13
2023-04-10T01:55:57.459Z,7.43
2023-04-10T02:01:01.949Z,6.53
2023-04-10T02:06:15.625Z,6.97
2023-04-10T02:11:26.412Z,6.27
2023-04-10T02:16:32.032Z,6.93
2023-04-10T02:21:35.551Z,8.23
2023-04-10T02:26:48.764Z,8.77
2023-04-10T02:31:53.233Z,8.20
2023-04-10T02:36:56.380Z,8.50
2023-04-10T02:41:59.435Z,8.73
2023-04-10T02:47:04.057Z,7.03
2023-04-10T02:52:07.319Z,8.67
2023-04-10T02:57:10.427Z,6.93
2023-04-10T03:02:14.964Z,8.10
2023-04-10T03:07:18.076Z,6.87
2023-04-10T03:12:21.505Z,7.53
2023-04-10T03:17:26.068Z,7.03
2023-04-10T03:22:32.227Z,7.57
2023-04-10T03:27:35.761Z,8.00
2023-04-10T03:32:42.380Z,7.87
2023-04-10T03:37:45.475Z,6.87
2023-04-10T03:42:48.620Z,6.20
2023-04-10T03:47:53.473Z,7.00
2023-04-10T03:52:56.565Z,5.63
2023-04-10T03:57:59.659Z,7.20
2023-04-10T04:03:05.263Z,6.43
2023-04-10T04:08:08.508Z,7.20
2023-04-10T04:13:11.568Z,6.37
2023-04-10T04:18:16.018Z,6.23
2023-04-10T04:23:19.099Z,7.60
2023-04-10T04:28:22.186Z,8.30
2023-04-10T04:33:26.628Z,6.70
2023-04-10T04:38:29.716Z,6.73
2023-04-10T04:43:32.930Z,6.80
2023-04-10T04:48:37.484Z,7.10
2023-04-10T04:53:40.552Z,8.03
2023-04-10T04:58:43.654Z,8.13
2023-04-10T05:03:48.129Z,6.53
2023-04-10T05:08:53.410Z,8.53
2023-04-10T05:13:56.785Z,7.40
2023-04-10T05:19:01.380Z,7.70
2023-04-10T05:24:04.846Z,6.63
2023-04-10T05:29:08.061Z,7.10
2023-04-10T05:34:12.798Z,7.03
2023-04-10T05:39:16.704Z,9.23
2023-04-10T05:44:19.758Z,7.87
2023-04-10T05:49:24.230Z,10.00
2023-04-10T05:54:27.301Z,8.50
2023-04-10T05:59:30.398Z,10.57
2023-04-10T06:04:35.078Z,7.70
2023-04-10T06:09:38.230Z,9.47
2023-04-10T06:14:41.414Z,9.97
2023-04-10T06:19:45.881Z,10.47
2023-04-10T06:24:48.974Z,10.47
2023-04-10T06:29:52.196Z,9.97
2023-04-10T06:34:56.658Z,10.53
2023-04-10T06:40:07.144Z,12.47
2023-04-10T06:45:10.936Z,11.20
2023-04-10T06:50:15.453Z,11.10
2023-04-10T06:55:18.762Z,13.10
2023-04-10T07:00:22.141Z,12.20
2023-04-10T07:05:27.193Z,13.03
2023-04-10T07:10:30.467Z,13.70
2023-04-10T07:15:33.543Z,11.37
2023-04-10T07:20:38.232Z,13.13
2023-04-10T07:25:43.505Z,13.03
2023-04-10T07:30:46.614Z,13.20
2023-04-10T07:35:51.776Z,13.70
2023-04-10T07:40:57.615Z,12.17
2023-04-10T07:46:00.814Z,12.30
2023-04-10T07:51:09.205Z,11.40
2023-04-10T07:56:18.219Z,11.87
2023-04-10T08:01:21.596Z,11.93
2023-04-10T08:06:26.081Z,12.20
2023-04-10T08:11:31.224Z,10.27
2023-04-10T08:16:35.741Z,11.97
2023-04-10T08:21:40.225Z,10.70
2023-04-10T08:26:43.312Z,10.47
2023-04-10T08:31:46.419Z,10.80
2023-04-10T08:36:50.875Z,10.77
2023-04-10T08:41:55.399Z,9.23
2023-04-10T08:47:01.092Z,8.53
2023-04-10T08:52:08.622Z,9.07
2023-04-10T08:57:17.696Z,8.80
2023-04-10T09:02:25.782Z,8.90
2023-04-10T09:07:30.423Z,9.00
2023-04-10T09:12:45.891Z,9.27
2023-04-10T09:18:00.527Z,10.10
2023-04-10T09:23:21.768Z,8.77
2023-04-10T09:28:24.857Z,8.57
2023-04-10T09:33:30.067Z,9.27
2023-04-10T09:38:35.372Z,9.47
2023-04-10T09:43:41.616Z,8.83
2023-04-10T09:48:56.858Z,8.83
2023-04-10T09:54:01.905Z,7.77
2023-04-10T09:59:07.323Z,8.07
2023-04-10T10:04:11.214Z,8.63
2023-04-10T10:09:17.134Z,8.37
2023-04-10T10:14:23.220Z,7.93
2023-04-10T10:19:32.388Z,7.90
2023-04-10T10:24:39.806Z,9.10
2023-04-10T10:29:43.876Z,8.00
2023-04-10T10:34:47.224Z,8.17
2023-04-10T10:40:00.397Z,8.73
2023-04-10T10:45:12.335Z,7.97
2023-04-10T10:50:15.425Z,7.63
2023-04-10T10:55:38.784Z,8.17
2023-04-10T11:01:06.826Z,8.30
2023-04-10T11:06:13.768Z,7.87
2023-04-10T11:11:20.063Z,7.47
2023-04-10T11:16:24.628Z,7.77
2023-04-10T11:21:28.544Z,7.33
2023-04-10T11:26:41.322Z,7.17
2023-04-10T11:31:45.501Z,6.10
2023-04-10T11:36:49.024Z,6.63
2023-04-10T11:41:55.431Z,5.80
2023-04-10T11:46:59.023Z,5.70
2023-04-10T11:52:02.891Z,6.37
2023-04-10T11:57:09.474Z,6.60
2023-04-10T12:02:15.273Z,6.10
2023-04-10T12:07:18.543Z,6.07
2023-04-10T12:12:36.195Z,5.53
2023-04-10T12:17:39.579Z,4.60
2023-04-10T12:22:44.157Z,4.80
2023-04-10T12:27:52.149Z,4.87
2023-04-10T12:32:55.297Z,4.30
2023-04-10T12:37:58.459Z,4.30
2023-04-10T12:43:02.986Z,5.47
2023-04-10T12:48:06.154Z,5.00
2023-04-10T12:53:09.459Z,5.27
2023-04-10T12:58:21.364Z,4.97
2023-04-10T13:03:25.139Z,4.60
2023-04-10T13:08:28.368Z,4.70
2023-04-10T13:13:33.416Z,4.47
2023-04-10T13:18:36.500Z,4.20
2023-04-10T13:23:39.642Z,4.40
2023-04-10T13:28:44.235Z,4.60
2023-04-10T13:33:48.302Z,4.13
2023-04-10T13:38:52.037Z,4.47
2023-04-10T13:43:56.946Z,4.10
2023-04-10T13:49:00.694Z,4.13
2023-04-10T13:54:04.988Z,4.00
2023-04-10T13:59:09.609Z,4.63
2023-04-10T14:04:12.678Z,4.33
2023-04-10T14:09:15.926Z,4.13
2023-04-10T14:14:20.477Z,5.00
2023-04-10T14:19:23.610Z,3.90
2023-04-10T14:24:26.677Z,3.97
2023-04-10T14:29:37.370Z,4.20
2023-04-10T14:34:43.726Z,4.07
2023-04-10T14:39:46.927Z,4.13
2023-04-10T14:44:51.388Z,4.00
2023-04-10T14:49:54.501Z,4.20
2023-04-10T14:54:57.601Z,4.10
2023-04-10T15:00:02.068Z,3.37
2023-04-10T15:05:08.846Z,3.40
2023-04-10T15:10:12.264Z,4.10
2023-04-10T15:15:16.870Z,4.00
2023-04-10T15:20:20.109Z,4.13
2023-04-10T15:25:23.168Z,4.17
2023-04-10T15:30:27.932Z,4.37
2023-04-10T15:35:34.225Z,3.77
2023-04-10T15:40:37.379Z,4.13
2023-04-10T15:45:41.827Z,4.07
2023-04-10T15:50:44.989Z,3.83
2023-04-10T15:55:48.114Z,4.07
2023-04-10T16:00:52.597Z,4.23
2023-04-10T16:05:57.115Z,3.90
2023-04-10T16:11:00.335Z,4.20
2023-04-10T16:16:06.110Z,3.80
2023-04-10T16:21:09.740Z,3.73
2023-04-10T16:26:12.799Z,4.00
2023-04-10T16:31:17.282Z,4.20
2023-04-10T16:36:20.385Z,4.20
2023-04-10T16:41:23.462Z,4.40
2023-04-10T16:46:28.041Z,4.30
2023-04-10T16:51:31.169Z,4.40
2023-04-10T16:56:34.333Z,3.90
2023-04-10T17:01:40.609Z,4.20
2023-04-10T17:06:43.835Z,4.30
2023-04-10T17:11:46.926Z,4.07
2023-04-10T17:16:51.407Z,5.03
2023-04-10T17:21:54.564Z,4.70
2023-04-10T17:26:57.730Z,4.70
2023-04-10T17:32:02.253Z,5.37
2023-04-10T17:37:05.418Z,6.50
2023-04-10T17:42:08.519Z,5.40
2023-04-10T17:47:12.941Z,4.63
2023-04-10T17:52:16.105Z,4.83
2023-04-10T17:57:19.250Z,4.33
2023-04-10T18:02:23.811Z,4.10
2023-04-10T18:07:26.906Z,5.00
2023-04-10T18:12:29.966Z,5.20
2023-04-10T18:17:34.458Z,5.10
2023-04-10T18:22:37.551Z,4.67
2023-04-10T18:27:51.414Z,4.10
2023-04-10T18:33:00.034Z,4.53
2023-04-10T18:38:03.202Z,4.90
2023-04-10T18:43:06.419Z,5.20
2023-04-10T18:48:11.070Z,5.50
2023-04-10T18:53:14.175Z,4.93
2023-04-10T18:58:17.264Z,5.20
2023-04-10T19:03:21.900Z,6.37
2023-04-10T19:08:25.162Z,7.50
2023-04-10T19:13:28.276Z,5.77
2023-04-10T19:18:32.739Z,6.60
2023-04-10T19:23:36.018Z,5.90
2023-04-10T19:28:39.215Z,5.77
2023-04-10T19:33:43.700Z,5.37
2023-04-10T19:38:50.823Z,6.40
2023-04-10T19:43:54.327Z,6.20
2023-04-10T19:48:58.955Z,6.50
2023-04-10T19:54:02.058Z,6.80
2023-04-10T19:59:05.138Z,6.50
2023-04-10T20:04:09.809Z,11.60
2023-04-10T20:09:13.025Z,8.00
2023-04-10T20:14:16.137Z,7.30
2023-04-10T20:19:20.684Z,6.93
2023-04-10T20:24:23.806Z,5.77
2023-04-10T20:29:27.866Z,6.07
2023-04-10T20:34:32.388Z,6.00
2023-04-10T20:39:37.621Z,6.47
2023-04-10T20:44:40.817Z,7.00
2023-04-10T20:49:45.334Z,6.70
2023-04-10T20:54:48.531Z,6.03
2023-04-10T20:59:51.691Z,6.30
2023-04-10T21:04:56.175Z,6.30
2023-04-10T21:09:59.292Z,6.77
2023-04-10T21:15:02.406Z,6.60
2023-04-10T21:20:07.898Z,6.60
2023-04-10T21:25:12.347Z,6.33
2023-04-10T21:30:15.879Z,7.00
2023-04-10T21:35:20.367Z,8.23
2023-04-10T21:40:23.773Z,7.57
2023-04-10T21:45:26.920Z,7.93
2023-04-10T21:50:31.436Z,7.57
2023-04-10T21:55:34.701Z,6.77
2023-04-10T22:00:37.864Z,7.20
2023-04-10T22:05:42.654Z,6.73
2023-04-10T22:10:47.454Z,7.20
2023-04-10T22:15:50.577Z,7.80
2023-04-10T22:20:55.141Z,7.97
2023-04-10T22:26:00.852Z,7.13
2023-04-10T22:31:04.043Z,7.00
2023-04-10T22:36:09.613Z,7.63
2023-04-10T22:41:12.726Z,7.43
2023-04-10T22:46:15.921Z,7.13
2023-04-10T22:51:20.447Z,7.10
2023-04-10T22:56:26.573Z,7.60
2023-04-10T23:01:31.467Z,7.67
2023-04-10T23:06:37.146Z,7.07
2023-04-10T23:11:40.245Z,6.73
2023-04-10T23:16:46.066Z,7.10
2023-04-10T23:21:50.625Z,7.17
2023-04-10T23:26:53.801Z,7.13
2023-04-10T23:31:56.930Z,6.83
2023-04-10T23:37:01.418Z,6.67
2023-04-10T23:42:04.932Z,6.63
2023-04-10T23:47:08.164Z,6.90
2023-04-10T23:52:12.649Z,7.20
2023-04-10T23:57:15.744Z,6.27
